Latest Weather Observations for Khancoban

IDN60801

Issued at 11:03 pm EST Wednesday 27 July 2016 (issued every 30 minutes, with the page automatically refreshed every 10 minutes)

About weather observations | Map of weather stations | Latest weather observations for NSW | Other Formats
Station Details ID: 072162 Name: KHANCOBAN AWS Lat: -36.23 Lon: 148.14 Height: 339.3 m
Data from the previous 72 hours. | See also: Recent months at Khancoban
Date/Time
EST
Temp
°C
App
Temp
°C
Dew
Point
°C
Rel
Hum
%
Delta-T
°C
Wind Press
QNH
hPa
Press
MSL
hPa
Rain since
9am
mm
Dir  Spd
km/h
Gust
km/h
Spd
kts
Gust
kts
27/11:00pm 7.2 5.1 6.6 96 0.3 NNW 7 11 4 6 1022.7 1023.5 1.0
27/10:30pm 7.3 5.3 7.2 99 0.0 NNE 7 9 4 5 1022.5 1023.3 1.0
27/10:00pm 7.5 6.1 7.4 99 0.0 NE 4 7 2 4 1022.1 1022.9 1.0
27/09:30pm 7.4 5.4 7.3 99 0.0 NNE 7 11 4 6 1021.9 1022.7 1.0
27/09:00pm 8.3 6.4 7.7 96 0.3 NE 7 11 4 6 1021.5 1022.2 1.0
27/08:30pm 7.8 7.3 7.8 100 0.0 CALM 0 0 0 0 1021.5 1022.2 1.0
27/08:00pm 7.2 6.1 7.1 99 0.0 S 2 7 1 4 1020.5 1021.3 1.0
27/07:30pm 7.8 6.5 7.5 98 0.1 NNE 4 9 2 5 1020.4 1021.2 1.0
27/07:00pm 8.7 6.5 7.9 95 0.4 NNE 9 13 5 7 1020.1 1020.9 1.0
27/06:30pm 8.0 6.8 7.9 99 0.0 NNW 4 7 2 4 1019.7 1020.5 0.8
27/06:00pm 8.6 6.9 7.5 93 0.5 NW 6 9 3 5 1019.0 1019.7 0.2
27/05:30pm 8.6 6.2 7.2 91 0.7 N 9 17 5 9 1018.2 1019.0 0.2
27/05:00pm 9.1 7.5 8.0 93 0.5 N 6 11 3 6 1017.6 1018.4 0.2
27/04:30pm 9.2 7.3 7.6 90 0.8 N 7 9 4 5 1017.6 1018.4 0.2
27/04:00pm 9.4 7.0 6.8 84 1.2 NNW 9 11 5 6 1017.1 1017.9 0.0
27/03:30pm 9.6 6.4 6.9 83 1.3 NNW 13 19 7 10 1016.7 1017.5 0.0
27/03:00pm 10.0 6.1 7.3 83 1.3 NNW 17 24 9 13 1016.0 1016.7 0.0
27/02:30pm 10.7 7.9 7.0 78 1.8 NNW 11 17 6 9 1015.3 1016.0 0.0
27/02:00pm 10.6 6.7 7.3 80 1.6 NNW 17 20 9 11 1015.0 1015.8 0.0
27/01:30pm 10.4 7.2 6.7 78 1.8 NNW 13 20 7 11 1014.8 1015.6 0.0
27/01:00pm 10.0 6.3 6.5 79 1.7 NW 15 20 8 11 1014.6 1015.4 0.0
27/12:30pm 10.3 7.8 6.6 78 1.8 NW 9 17 5 9 1014.7 1015.5 0.0
27/12:00pm 9.9 6.8 7.2 83 1.3 NW 13 17 7 9 1014.7 1015.5 0.0
27/11:30am 9.9 6.6 6.4 79 1.7 WNW 13 19 7 10 1014.7 1015.5 0.0
27/11:00am 10.2 7.1 7.4 83 1.4 NNW 13 19 7 10 1014.4 1015.2 0.0
27/10:30am 9.7 8.1 8.0 89 0.8 N 6 9 3 5 1014.1 1014.8 0.0
27/10:00am 8.6 6.9 8.3 98 0.1 NE 7 9 4 5 1013.9 1014.6 0.0
27/09:30am 7.8 5.9 7.7 99 0.0 NNE 7 9 4 5 1013.4 1014.1 0.0
27/09:00am 8.0 7.1 7.9 99 0.0 NE 2 7 1 4 1012.7 1013.4 7.2
27/08:30am 6.9 4.5 6.9 100 0.0 SW 9 13 5 7 1012.2 1012.9 7.2
27/08:00am 6.5 4.6 6.5 100 0.0 NNE 6 13 3 7 1011.2 1011.9 7.2
27/07:30am 6.4 5.2 6.4 100 0.0 NE 2 6 1 3 1011.0 1011.7 7.0
27/07:00am 6.2 4.2 6.2 100 0.0 SSE 6 7 3 4 1010.5 1011.2 7.0
27/06:30am 6.2 4.6 6.2 100 0.0 NNE 4 7 2 4 1009.6 1010.3 6.2
27/06:00am 6.2 4.9 6.1 99 0.0 ESE 2 7 1 4 1009.4 1010.1 6.2
27/05:30am 6.4 4.8 6.3 99 0.0 NE 4 7 2 4 1009.2 1009.8 5.0
27/05:00am 6.9 3.1 5.7 92 0.5 NNW 15 24 8 13 1008.5 1009.2 3.2
27/04:30am 7.0 3.1 5.5 90 0.7 N 15 20 8 11 1008.6 1009.3 1.8
27/04:00am 6.6 4.3 5.7 94 0.4 NE 7 15 4 8 1008.7 1009.4 1.8
27/03:30am 6.2 3.8 5.3 94 0.4 SSE 7 11 4 6 1009.1 1009.7 1.4
27/03:00am 6.5 3.6 4.8 89 0.8 WNW 9 13 5 7 1009.6 1010.3 0.8
27/02:30am 6.5 3.2 4.7 88 0.8 NW 11 19 6 10 1010.0 1010.7 0.6
27/02:00am 6.5 2.4 4.5 87 0.9 NW 15 20 8 11 1010.2 1010.9 0.6
27/01:30am 6.8 2.3 4.3 84 1.1 NNW 17 22 9 12 1010.6 1011.3 0.2
27/01:00am 5.5 2.2 4.5 93 0.4 N 11 13 6 7 1011.2 1011.9 0.2
27/12:30am 5.7 3.7 4.2 90 0.7 NE 4 6 2 3 1012.5 1013.2 0.2
27/12:00am 5.8 2.8 4.0 88 0.8 WSW 9 11 5 6 1012.9 1013.6 0.2
 
Date/Time
EST
Temp
°C
App
Temp
°C
Dew
Point
°C
Rel
Hum
%
Delta-T
°C
Wind Press
QNH
hPa
Press
MSL
hPa
Rain since
9am
mm
Dir  Spd
km/h
Gust
km/h
Spd
kts
Gust
kts
26/11:30pm 6.3 1.3 3.5 82 1.2 NE 19 28 10 15 1012.9 1013.6 0.2
26/11:00pm 6.2 1.1 3.9 85 1.0 N 20 35 11 19 1013.8 1014.5 0.2
26/10:30pm 7.3 3.8 3.7 78 1.6 N 11 19 6 10 1013.3 1014.0 0.0
26/10:00pm 6.6 4.1 3.6 81 1.3 SSE 6 7 3 4 1013.5 1014.2 0.0
26/09:30pm 7.4 3.9 3.3 75 1.8 NNW 11 17 6 9 1013.6 1014.3 0.0
26/09:00pm 7.6 3.7 3.5 75 1.8 NNE 13 20 7 11 1013.8 1014.5 0.0
26/08:30pm 7.4 2.4 3.5 76 1.7 N 19 30 10 16 1014.2 1015.0 0.0
26/08:00pm 7.1 4.0 3.5 78 1.6 NNW 9 20 5 11 1014.3 1015.1 0.0
26/07:30pm 7.5 3.2 3.4 75 1.8 N 15 20 8 11 1014.3 1015.1 0.0
26/07:00pm 7.7 3.0 3.2 73 1.9 N 17 26 9 14 1013.8 1014.5 0.0
26/06:30pm 7.7 2.5 3.4 74 1.9 N 20 33 11 18 1013.6 1014.3 0.0
26/06:00pm 7.5 3.6 3.6 76 1.7 N 13 17 7 9 1013.7 1014.4 0.0
26/05:30pm 7.7 3.5 3.9 77 1.7 N 15 20 8 11 1013.6 1014.3 0.0
26/05:00pm 7.7 3.6 4.1 78 1.6 NNW 15 20 8 11 1013.7 1014.4 0.0
26/04:30pm 7.9 2.9 3.8 75 1.8 NNW 19 28 10 15 1013.5 1014.2 0.0
26/04:00pm 8.3 3.7 3.9 74 1.9 NNW 17 24 9 13 1013.4 1014.1 0.0
26/03:30pm 8.5 3.9 3.8 72 2.1 NNW 17 24 9 13 1013.8 1014.5 0.0
26/03:00pm 8.8 3.7 3.0 67 2.5 NW 19 26 10 14 1014.0 1014.7 0.0
26/02:30pm 9.2 4.0 3.8 69 2.4 N 20 30 11 16 1014.0 1014.7 0.0
26/02:00pm 8.8 4.2 3.8 71 2.2 NNW 17 24 9 13 1014.4 1015.2 0.0
26/01:30pm 8.9 4.0 3.9 71 2.2 N 19 28 10 15 1014.8 1015.6 0.0
26/01:00pm 8.5 3.3 3.6 71 2.2 N 20 30 11 16 1015.4 1016.1 0.0
26/12:30pm 8.8 3.4 4.4 74 2.0 N 22 32 12 17 1015.8 1016.5 0.0
26/12:00pm 7.9 2.9 3.4 73 2.0 N 19 26 10 14 1016.2 1016.9 0.0
26/11:30am 7.6 3.4 3.6 76 1.7 NNE 15 28 8 15 1016.6 1017.3 0.0
26/11:00am 7.8 2.6 3.3 73 1.9 NNW 20 28 11 15 1016.7 1017.5 0.0
26/10:30am 7.6 3.3 3.5 75 1.8 NNW 15 28 8 15 1016.9 1017.7 0.0
26/10:00am 7.4 2.4 3.5 76 1.7 N 19 24 10 13 1016.9 1017.7 0.0
26/09:30am 6.8 3.0 3.8 81 1.3 N 13 17 7 9 1016.9 1017.7 0.0
26/09:00am 6.6 1.4 3.4 80 1.4 NNE 20 28 11 15 1016.8 1017.6 11.6
26/08:30am 5.6 1.3 3.3 85 1.0 NNE 15 22 8 12 1016.9 1017.7 11.6
26/08:00am 5.7 2.2 3.4 85 1.0 NNE 11 20 6 11 1016.5 1017.2 11.6
26/07:30am 5.5 -0.1 3.5 87 0.9 N 22 30 12 16 1016.2 1016.9 11.6
26/07:00am 5.4 2.3 3.4 87 0.8 NE 9 15 5 8 1015.5 1016.2 11.6
26/06:30am 5.7 1.8 3.4 85 1.0 NNW 13 24 7 13 1015.3 1016.0 11.4
26/06:00am 6.5 -0.7 2.9 78 1.5 N 30 43 16 23 1014.0 1014.7 11.0
26/05:30am 6.8 1.5 3.2 78 1.5 NNE 20 28 11 15 1013.4 1014.1 11.0
26/05:00am 6.6 1.4 3.6 81 1.3 N 20 28 11 15 1013.1 1013.8 11.0
26/04:30am 6.5 2.3 3.7 82 1.2 N 15 20 8 11 1013.0 1013.7 11.0
26/04:00am 6.6 1.4 3.8 82 1.2 N 20 30 11 16 1012.4 1013.1 11.0
26/03:30am 6.7 2.1 3.9 82 1.2 N 17 26 9 14 1011.9 1012.7 11.0
26/03:00am 6.9 2.1 4.9 87 0.9 NNW 19 28 10 15 1012.1 1012.8 11.0
26/02:30am 7.1 2.0 3.9 80 1.4 WNW 20 32 11 17 1011.9 1012.7 11.0
26/02:03am 7.2 0.9 5.5 89 0.8 WNW 28 46 15 25 1011.8 1012.6 11.0
26/02:00am 7.3 2.2 6.2 93 0.5 WNW 22 44 12 24 1011.8 1012.6 11.0
26/01:30am 7.9 2.6 6.8 93 0.5 NNW 24 35 13 19 1010.6 1011.3 8.6
26/01:14am 7.9 1.8 6.7 92 0.6 N 28 46 15 25 1010.3 1011.0 8.2
26/01:00am 7.8 2.9 6.9 94 0.4 N 22 33 12 18 1010.3 1011.0 8.2
26/12:30am 7.8 2.5 6.7 93 0.5 NNW 24 43 13 23 1010.8 1011.5 7.4
26/12:00am 7.9 2.6 7.0 94 0.4 N 24 39 13 21 1010.8 1011.5 6.6
 
Date/Time
EST
Temp
°C
App
Temp
°C
Dew
Point
°C
Rel
Hum
%
Delta-T
°C
Wind Press
QNH
hPa
Press
MSL
hPa
Rain since
9am
mm
Dir  Spd
km/h
Gust
km/h
Spd
kts
Gust
kts
25/11:30pm 8.0 3.1 7.1 94 0.4 N 22 35 12 19 1011.1 1011.8 6.2
25/11:00pm 8.0 3.1 7.1 94 0.4 NNW 22 35 12 19 1011.2 1011.9 6.0
25/10:30pm 7.9 3.0 6.7 92 0.6 NNW 22 35 12 19 1011.3 1012.0 5.2
25/10:00pm 7.9 2.2 6.5 91 0.7 N 26 41 14 22 1011.2 1011.9 5.0
25/09:30pm 7.8 2.0 6.4 91 0.7 N 26 32 14 17 1011.2 1011.9 4.4
25/09:00pm 7.9 2.1 6.2 89 0.8 N 26 39 14 21 1012.1 1012.8 3.8
25/08:30pm 7.8 2.9 6.7 93 0.5 N 22 39 12 21 1012.7 1013.4 3.8
25/08:00pm 7.5 3.6 6.9 96 0.3 N 17 30 9 16 1012.9 1013.6 3.2
25/07:30pm 7.8 2.7 6.1 89 0.8 N 22 41 12 22 1012.7 1013.4 2.2
25/07:00pm 8.1 2.7 6.4 89 0.8 N 24 33 13 18 1012.6 1013.3 1.8
25/06:30pm 8.1 3.0 7.5 96 0.3 NNW 24 35 13 19 1012.7 1013.4 1.8
25/06:00pm 8.5 3.7 7.4 93 0.5 NNW 22 37 12 20 1011.8 1012.6 1.4
25/05:30pm 8.5 4.7 7.6 94 0.4 N 17 24 9 13 1011.6 1012.3 1.4
25/05:00pm 8.6 4.8 7.7 94 0.4 N 17 24 9 13 1011.4 1012.1 1.4
25/04:30pm 8.6 4.5 7.8 95 0.4 N 19 26 10 14 1010.7 1011.4 1.4
25/04:00pm 8.4 5.4 7.6 95 0.4 NNW 13 15 7 8 1011.0 1011.7 1.2
25/03:30pm 8.7 5.6 7.3 91 0.7 NNW 13 19 7 10 1011.5 1012.2 1.2
25/03:00pm 9.3 6.4 6.6 83 1.3 NNW 11 15 6 8 1011.5 1012.2 1.2
25/02:30pm 9.5 5.3 7.3 86 1.1 NNW 19 28 10 15 1011.8 1012.6 1.2
25/02:00pm 9.1 5.4 6.4 83 1.3 N 15 22 8 12 1011.7 1012.5 1.2
25/01:30pm 9.3 5.9 5.9 79 1.6 NW 13 17 7 9 1012.2 1012.9 1.0
25/01:00pm 9.3 5.6 6.2 81 1.5 N 15 22 8 12 1012.5 1013.2 1.0
25/12:30pm 9.0 5.1 7.1 88 0.9 N 17 24 9 13 1012.8 1013.5 1.0
25/12:00pm 8.3 5.1 6.9 91 0.7 NW 13 22 7 12 1013.3 1014.0 0.6
25/11:30am 7.9 4.0 7.1 95 0.4 NW 17 24 9 13 1013.6 1014.3 0.6
25/11:00am 9.1 5.2 7.2 88 0.9 NNW 17 22 9 12 1013.2 1013.9 0.6
25/10:30am 8.2 6.4 8.1 99 0.0 N 7 11 4 6 1013.2 1013.9 0.6
25/10:00am 6.8 4.9 6.8 100 0.0 NNE 6 9 3 5 1013.4 1014.1 0.4
25/09:30am 6.0 5.1 6.0 100 0.0 CALM 0 0 0 0 1013.2 1013.9 0.4
25/09:00am 6.0 5.1 6.0 100 0.0 CALM 0 0 0 0 1012.8 1013.5 12.8
25/08:30am 5.6 4.2 5.6 100 0.0 W 2 6 1 3 1012.6 1013.3 12.8
25/08:00am 5.4 4.4 5.4 100 0.0 CALM 0 0 0 0 1012.2 1012.9 12.8
25/07:30am 5.2 4.1 5.2 100 0.0 CALM 0 0 0 0 1011.6 1012.3 12.8
25/07:00am 5.2 3.7 5.2 100 0.0 S 2 7 1 4 1010.9 1011.6 12.8
25/06:30am 5.2 2.8 5.2 100 0.0 SSE 7 9 4 5 1010.5 1011.2 12.8
25/06:00am 5.3 3.1 5.2 99 0.0 NNW 6 9 3 5 1010.0 1010.7 12.8
25/05:30am 5.1 2.8 5.0 99 0.0 NNW 6 9 3 5 1009.6 1010.3 12.6
25/05:00am 5.4 1.7 4.7 95 0.3 NNE 13 20 7 11 1009.4 1010.1 12.2
25/04:30am 5.6 2.1 5.5 99 0.0 NNE 13 17 7 9 1009.0 1009.6 11.8
25/04:00am 5.6 1.7 5.5 99 0.0 N 15 22 8 12 1008.7 1009.4 11.6
25/03:30am 5.7 2.6 5.6 99 0.0 N 11 19 6 10 1008.5 1009.2 11.4
25/03:00am 5.6 3.3 5.5 99 0.0 NE 7 9 4 5 1008.7 1009.4 10.8
25/02:30am 5.8 3.1 5.7 99 0.0 N 9 17 5 9 1008.8 1009.5 10.6
25/02:00am 5.6 3.3 5.6 100 0.0 SSE 7 9 4 5 1009.1 1009.7 10.2
25/01:30am 5.6 3.5 5.6 100 0.0 W 6 9 3 5 1009.2 1009.8 10.0
25/01:00am 5.8 1.6 5.7 99 0.0 N 17 24 9 13 1009.4 1010.1 9.8
25/12:30am 4.9 3.4 4.9 100 0.0 WNW 2 6 1 3 1009.5 1010.2 9.8
25/12:00am 4.2 2.9 4.2 100 0.0 CALM 0 7 0 4 1009.3 1010.0 9.4
 
Date/Time
EST
Temp
°C
App
Temp
°C
Dew
Point
°C
Rel
Hum
%
Delta-T
°C
Wind Press
QNH
hPa
Press
MSL
hPa
Rain since
9am
mm
Dir  Spd
km/h
Gust
km/h
Spd
kts
Gust
kts
24/11:30pm 4.3 1.9 4.3 100 0.0 NNE 6 11 3 6 1009.0 1009.6 8.6

Other Formats:

Comma delimited format used in spreadsheet applications
http://www.bom.gov.au/fwo/IDN60801/IDN60801.94919.axf

JavaScript Object Notation format (JSON) in row-major order
http://www.bom.gov.au/fwo/IDN60801/IDN60801.94919.json